CDT,Max TemperatureF,Mean TemperatureF,Min TemperatureF,Max Dew PointF,MeanDew PointF,Min DewpointF,Max Humidity, Mean Humidity, Min Humidity, Max Sea Level PressureIn, Mean Sea Level PressureIn, Min Sea Level PressureIn, Max VisibilityMiles, Mean VisibilityMiles, Min VisibilityMiles, Max Wind SpeedMPH, Mean Wind SpeedMPH, Max Gust SpeedMPH,PrecipitationIn, CloudCover, Events, WindDirDegrees
2012-10-1,79,70,62,65,62,58,100,83,49,29.81,29.71,29.64,10.0,9.5,1.8,18,11,26,0.02,6,Rain,311
2012-10-2,83,70,58,67,61,54,100,76,37,29.97,29.88,29.80,10.0,8.9,0.5,6,1,,0.01,1,Fog,196
2012-10-3,85,74,63,68,66,63,100,81,50,30.10,30.02,29.96,10.0,9.9,4.0,8,1,,0.01,1,Thunderstorm,160
2012-10-4,88,77,66,75,68,63,100,81,44,30.20,30.15,30.10,10.0,7.2,0.5,9,2,9,0.01,1,Fog,139
2012-10-5,87,76,64,76,67,61,100,82,40,30.15,30.08,30.01,10.0,6.7,0.2,8,1,,0.01,3,Fog,174
2012-10-6,84,72,60,75,67,58,100,84,58,30.06,30.01,29.96,10.0,7.0,0.2,17,3,21,0.00,4,Fog,358
2012-10-7,71,63,55,58,55,52,95,80,60,30.16,30.10,30.04,10.0,10.0,10.0,16,11,21,0.00,4,,9
2012-10-8,70,62,53,55,53,49,100,77,52,30.20,30.13,30.09,10.0,10.0,10.0,13,6,21,0.00,3,,5
2012-10-9,80,64,49,66,58,50,100,81,51,30.16,30.08,30.01,10.0,9.1,2.5,7,2,,0.00,0,,33
2012-10-10,87,73,59,72,67,59,100,84,50,30.17,30.11,30.05,10.0,8.3,0.5,8,1,,0.00,2,Fog,77
2012-10-11,88,76,63,73,67,64,100,82,45,30.23,30.17,30.13,10.0,6.5,0.2,9,2,,0.00,3,Fog,117
2012-10-12,86,73,60,74,67,60,100,84,54,30.24,30.18,30.16,10.0,6.4,0.2,9,2,,0.00,3,Fog,130
2012-10-13,84,76,68,76,72,68,100,87,65,30.19,30.13,30.07,10.0,7.4,0.2,17,6,23,0.00,5,Fog,128
2012-10-14,86,78,71,78,74,70,100,87,60,30.12,30.04,30.00,10.0,9.1,1.5,14,5,18,0.00,2,,179
2012-10-15,83,72,62,75,66,56,100,78,41,30.05,29.99,29.94,10.0,8.1,0.5,12,4,20,0.10,1,Fog-Rain-Thunderstorm,6
2012-10-16,82,69,56,70,63,56,100,83,54,29.99,29.91,29.83,10.0,10.0,10.0,12,2,,0.00,1,,129
2012-10-17,85,74,64,78,72,64,100,87,66,29.84,29.78,29.71,10.0,8.2,0.2,17,6,24,0.00,5,Fog-Rain,171
2012-10-18,81,74,64,78,61,46,100,67,29,29.94,29.83,29.72,10.0,9.5,1.2,17,7,28,0.00,3,Rain-Thunderstorm,11
2012-10-19,81,67,53,57,49,38,99,60,23,30.00,29.94,29.90,10.0,10.0,10.0,13,3,18,0.00,0,,301
2012-10-20,83,66,50,60,53,42,100,71,24,30.02,29.96,29.93,10.0,9.2,0.5,9,2,,0.01,0,Fog,157
2012-10-21,83,70,56,69,63,56,100,82,47,30.08,30.03,29.97,10.0,9.8,5.0,13,3,17,0.01,0,,130
2012-10-22,83,71,59,68,66,59,100,82,54,30.11,30.06,30.02,10.0,9.6,1.2,13,4,16,0.01,0,,120
2012-10-23,86,74,62,71,66,62,100,80,49,30.06,30.02,29.98,10.0,9.1,0.2,9,4,,0.02,1,Fog,120
2012-10-24,86,76,67,74,70,67,100,84,56,30.07,30.01,29.96,10.0,8.6,1.0,10,3,,0.00,2,,123
2012-10-25,85,76,66,72,68,64,100,83,50,30.00,29.95,29.91,10.0,9.0,1.0,10,4,,0.00,0,,119
2012-10-26,84,69,54,75,65,50,100,88,55,30.09,29.98,29.93,10.0,6.5,0.2,18,5,26,0.00,6,Fog,339
2012-10-27,65,56,47,50,46,42,91,71,46,30.12,30.06,30.00,10.0,10.0,10.0,20,13,29,0.00,1,,347
2012-10-28,66,53,40,42,38,33,95,64,30,30.19,30.13,30.08,10.0,10.0,10.0,20,8,25,0.00,0,,338
2012-10-29,66,52,39,43,38,35,95,62,31,30.26,30.19,30.12,10.0,10.0,10.0,18,7,24,0.00,0,,349
2012-10-30,72,56,39,52,42,33,100,68,25,30.16,30.10,30.02,10.0,10.0,10.0,12,2,,0.00,0,,240
2012-10-31,81,64,48,65,57,49,100,79,45,30.07,30.02,29.96,10.0,9.8,7.0,14,3,20,0.00,1,,227